createdAt,value
2023-06-25T00:00:21.344Z,18.66
2023-06-25T00:01:21.434Z,18.63
2023-06-25T00:02:21.427Z,18.62
2023-06-25T00:03:21.387Z,18.57
2023-06-25T00:04:21.330Z,18.55
2023-06-25T00:05:21.321Z,18.52
2023-06-25T00:06:21.264Z,18.51
2023-06-25T00:07:21.415Z,18.48
2023-06-25T00:08:21.303Z,18.48
2023-06-25T00:09:21.237Z,18.44
2023-06-25T00:10:21.213Z,18.44
2023-06-25T00:11:21.204Z,18.41
2023-06-25T00:12:21.220Z,18.37
2023-06-25T00:13:21.171Z,18.39
2023-06-25T00:14:21.180Z,18.39
2023-06-25T00:15:21.245Z,18.39
2023-06-25T00:16:21.193Z,18.39
2023-06-25T00:17:21.172Z,18.36
2023-06-25T00:18:21.137Z,18.36
2023-06-25T00:19:21.129Z,18.36
2023-06-25T00:20:21.103Z,18.36
2023-06-25T00:21:21.095Z,18.35
2023-06-25T00:22:21.140Z,18.32
2023-06-25T00:23:21.077Z,18.32
2023-06-25T00:24:21.079Z,18.29
2023-06-25T00:25:21.092Z,18.23
2023-06-25T00:26:21.073Z,18.21
2023-06-25T00:27:21.008Z,18.18
2023-06-25T00:28:21.050Z,18.18
2023-06-25T00:29:21.040Z,18.12
2023-06-25T00:30:23.237Z,18.11
2023-06-25T00:31:21.016Z,18.08
2023-06-25T00:32:21.099Z,18.05
2023-06-25T00:33:21.050Z,18.05
2023-06-25T00:34:20.994Z,18.02
2023-06-25T00:35:21.000Z,18.02
2023-06-25T00:36:20.930Z,18.03
2023-06-25T00:37:20.992Z,18.00
2023-06-25T00:38:20.920Z,17.97
2023-06-25T00:39:20.899Z,17.97
2023-06-25T00:40:20.896Z,17.97
2023-06-25T00:41:20.891Z,17.93
2023-06-25T00:42:21.496Z,17.93
2023-06-25T00:43:20.852Z,17.95
2023-06-25T00:44:20.872Z,17.95
2023-06-25T00:45:20.832Z,17.95
2023-06-25T00:46:21.469Z,17.97
2023-06-25T00:47:20.813Z,17.99
2023-06-25T00:48:20.834Z,18.00
2023-06-25T00:49:20.784Z,18.00
2023-06-25T00:50:20.838Z,17.99
2023-06-25T00:51:20.747Z,17.99
2023-06-25T00:52:30.814Z,17.97
2023-06-25T00:53:30.748Z,17.93
2023-06-25T00:54:30.760Z,17.93
2023-06-25T00:55:31.922Z,17.90
2023-06-25T00:56:20.764Z,17.87
2023-06-25T00:57:20.675Z,17.86
2023-06-25T00:58:20.696Z,17.82
2023-06-25T00:59:20.674Z,17.82
2023-06-25T01:00:20.656Z,17.79
2023-06-25T01:01:20.741Z,17.78
2023-06-25T01:02:20.651Z,17.77
2023-06-25T01:03:20.738Z,17.74
2023-06-25T01:04:20.677Z,17.75
2023-06-25T01:05:20.595Z,17.77
2023-06-25T01:06:31.786Z,17.75
2023-06-25T01:07:20.746Z,17.75
2023-06-25T01:08:31.693Z,17.74
2023-06-25T01:09:20.582Z,17.71
2023-06-25T01:10:20.589Z,17.72
2023-06-25T01:11:20.544Z,17.71
2023-06-25T01:12:20.548Z,17.71
2023-06-25T01:13:28.146Z,17.72
2023-06-25T01:14:20.574Z,17.68
2023-06-25T01:15:20.520Z,17.71
2023-06-25T01:16:20.571Z,17.68
2023-06-25T01:17:20.551Z,17.66
2023-06-25T01:18:20.510Z,17.64
2023-06-25T01:19:20.494Z,17.62
2023-06-25T01:20:20.485Z,17.64
2023-06-25T01:21:20.447Z,17.62
2023-06-25T01:22:20.448Z,17.56
2023-06-25T01:23:20.445Z,17.52
2023-06-25T01:24:20.443Z,17.51
2023-06-25T01:25:20.419Z,17.49
2023-06-25T01:26:20.401Z,17.48
2023-06-25T01:27:20.386Z,17.48
2023-06-25T01:28:20.383Z,17.49
2023-06-25T01:29:20.369Z,17.51
2023-06-25T01:30:20.405Z,17.49
2023-06-25T01:31:20.352Z,17.51
2023-06-25T01:32:20.368Z,17.51
2023-06-25T01:33:20.314Z,17.51
2023-06-25T01:34:20.315Z,17.52
2023-06-25T01:35:20.321Z,17.54
2023-06-25T01:36:20.321Z,17.52
2023-06-25T01:37:20.281Z,17.51
2023-06-25T01:38:20.272Z,17.51
2023-06-25T01:39:20.253Z,17.49
2023-06-25T01:40:20.282Z,17.49
2023-06-25T01:41:20.256Z,17.48
2023-06-25T01:42:20.265Z,17.46
2023-06-25T01:43:20.207Z,17.44
2023-06-25T01:44:21.739Z,17.43
2023-06-25T01:45:20.191Z,17.40
2023-06-25T01:46:20.253Z,17.38
2023-06-25T01:47:20.259Z,17.36
2023-06-25T01:48:20.242Z,17.36
2023-06-25T01:49:30.831Z,17.31
2023-06-25T01:50:21.168Z,17.28
2023-06-25T01:51:20.134Z,17.28
2023-06-25T01:52:20.137Z,17.26
2023-06-25T01:53:20.131Z,17.26
2023-06-25T01:54:20.112Z,17.25
2023-06-25T01:55:20.116Z,17.25
2023-06-25T01:56:20.086Z,17.23
2023-06-25T01:57:20.074Z,17.22
2023-06-25T01:58:20.047Z,17.21
2023-06-25T01:59:20.061Z,17.16
2023-06-25T02:00:20.030Z,17.14
2023-06-25T02:01:20.040Z,17.14
2023-06-25T02:02:20.046Z,17.12
2023-06-25T02:03:20.090Z,17.11
2023-06-25T02:04:19.996Z,17.08
2023-06-25T02:05:20.013Z,17.08
2023-06-25T02:06:19.968Z,17.06
2023-06-25T02:07:20.067Z,17.06
2023-06-25T02:08:19.963Z,17.03
2023-06-25T02:09:19.946Z,17.04
2023-06-25T02:10:19.945Z,17.06
2023-06-25T02:11:19.900Z,17.06
2023-06-25T02:12:19.908Z,17.07
2023-06-25T02:13:19.913Z,17.04
2023-06-25T02:14:30.913Z,17.04
2023-06-25T02:17:39.458Z,17.03
2023-06-25T02:18:39.406Z,17.00
2023-06-25T02:19:39.362Z,16.98
2023-06-25T02:20:39.333Z,17.00
2023-06-25T02:21:39.388Z,17.00
2023-06-25T02:22:39.391Z,17.01
2023-06-25T02:23:39.346Z,17.00
2023-06-25T02:24:39.293Z,16.97
2023-06-25T02:25:39.529Z,16.94
2023-06-25T02:26:39.320Z,16.93
2023-06-25T02:27:39.267Z,16.94
2023-06-25T02:28:39.357Z,16.91
2023-06-25T02:29:39.238Z,16.94
2023-06-25T02:30:39.278Z,16.89
2023-06-25T02:31:39.276Z,16.88
2023-06-25T02:32:39.271Z,16.85
2023-06-25T02:33:39.243Z,16.83
2023-06-25T02:34:39.192Z,16.83
2023-06-25T02:35:39.343Z,16.83
2023-06-25T02:36:39.167Z,16.79
2023-06-25T02:37:39.201Z,16.76
2023-06-25T02:38:39.177Z,16.76
2023-06-25T02:39:39.179Z,16.75
2023-06-25T02:40:39.126Z,16.75
2023-06-25T02:41:39.127Z,16.76
2023-06-25T02:42:39.683Z,16.75
2023-06-25T02:43:39.090Z,16.73
2023-06-25T02:44:39.078Z,16.75
2023-06-25T02:45:39.246Z,16.76
2023-06-25T02:46:39.087Z,16.75
2023-06-25T02:47:39.077Z,16.76
2023-06-25T02:48:39.030Z,16.75
2023-06-25T02:49:39.102Z,16.71
2023-06-25T02:50:39.009Z,16.70
2023-06-25T02:51:39.030Z,16.68
2023-06-25T02:52:39.011Z,16.66
2023-06-25T02:53:39.009Z,16.64
2023-06-25T02:54:39.003Z,16.61
2023-06-25T02:55:39.181Z,16.60
2023-06-25T02:56:38.944Z,16.58
2023-06-25T02:57:38.978Z,16.57
2023-06-25T02:58:38.961Z,16.57
2023-06-25T02:59:38.960Z,16.56
2023-06-25T03:00:38.913Z,16.57
2023-06-25T03:01:38.972Z,16.57
2023-06-25T03:02:38.990Z,16.56
2023-06-25T03:03:38.917Z,16.57
2023-06-25T03:04:38.851Z,16.56
2023-06-25T03:05:39.097Z,16.53
2023-06-25T03:06:38.842Z,16.56
2023-06-25T03:07:38.868Z,16.57
2023-06-25T03:08:38.875Z,16.56
2023-06-25T03:09:38.837Z,16.57
2023-06-25T03:10:38.825Z,16.58
2023-06-25T03:11:38.826Z,16.58
2023-06-25T03:12:38.782Z,16.56
2023-06-25T03:13:38.772Z,16.56
2023-06-25T03:14:38.800Z,16.56
2023-06-25T03:15:38.898Z,16.53
2023-06-25T03:16:38.737Z,16.53
2023-06-25T03:17:38.794Z,16.50
2023-06-25T03:18:38.714Z,16.49
2023-06-25T03:19:38.731Z,16.48
2023-06-25T03:20:38.723Z,16.48
2023-06-25T03:21:38.688Z,16.46
2023-06-25T03:22:38.686Z,16.43
2023-06-25T03:23:38.688Z,16.41
2023-06-25T03:24:38.632Z,16.41
2023-06-25T03:25:38.984Z,16.38
2023-06-25T03:26:38.618Z,16.35
2023-06-25T03:27:38.680Z,16.38
2023-06-25T03:28:38.591Z,16.35
2023-06-25T03:29:38.608Z,16.33
2023-06-25T03:30:38.582Z,16.35
2023-06-25T03:31:38.624Z,16.38
2023-06-25T03:32:38.677Z,16.38
2023-06-25T03:33:38.683Z,16.42
2023-06-25T03:34:38.551Z,16.42
2023-06-25T03:35:38.812Z,16.43
2023-06-25T03:36:38.525Z,16.43
2023-06-25T03:37:38.553Z,16.46
2023-06-25T03:38:38.500Z,16.46
2023-06-25T03:39:38.492Z,16.49
2023-06-25T03:40:38.468Z,16.48
2023-06-25T03:41:38.452Z,16.52
2023-06-25T03:42:38.438Z,16.52
2023-06-25T03:43:38.445Z,16.53
2023-06-25T03:44:38.407Z,16.52
2023-06-25T03:45:38.667Z,16.56
2023-06-25T03:46:38.404Z,16.58
2023-06-25T03:47:38.465Z,16.58
2023-06-25T03:48:38.391Z,16.61
2023-06-25T03:49:38.353Z,16.60
2023-06-25T03:50:38.347Z,16.61
2023-06-25T03:51:38.493Z,16.60
2023-06-25T03:52:38.337Z,16.61
2023-06-25T03:53:38.365Z,16.61
2023-06-25T03:54:38.329Z,16.61
2023-06-25T03:55:38.553Z,16.61
2023-06-25T03:56:38.301Z,16.61
2023-06-25T03:57:38.268Z,16.63
2023-06-25T03:58:38.268Z,16.64
2023-06-25T03:59:38.305Z,16.63
2023-06-25T04:00:38.321Z,16.64
2023-06-25T04:01:38.284Z,16.66
2023-06-25T04:02:38.291Z,16.68
2023-06-25T04:03:38.262Z,16.70
2023-06-25T04:04:38.319Z,16.70
2023-06-25T04:05:38.469Z,16.73
2023-06-25T04:06:38.176Z,16.75
2023-06-25T04:07:38.210Z,16.76
2023-06-25T04:08:38.165Z,16.75
2023-06-25T04:09:38.148Z,16.78
2023-06-25T04:10:38.136Z,16.79
2023-06-25T04:11:38.117Z,16.81
2023-06-25T04:12:38.187Z,16.82
2023-06-25T04:13:38.116Z,16.83
2023-06-25T04:14:38.149Z,16.83
2023-06-25T04:15:38.435Z,16.85
2023-06-25T04:16:38.088Z,16.85
2023-06-25T04:17:38.114Z,16.88
2023-06-25T04:18:38.043Z,16.93
2023-06-25T04:19:38.078Z,16.94
2023-06-25T04:20:38.030Z,16.96
2023-06-25T04:21:38.022Z,16.98
2023-06-25T04:22:38.048Z,17.03
2023-06-25T04:23:38.011Z,17.04
2023-06-25T04:24:37.993Z,17.06
2023-06-25T04:25:38.115Z,17.06
2023-06-25T04:26:38.016Z,17.11
2023-06-25T04:27:37.968Z,17.12
2023-06-25T04:28:37.938Z,17.15
2023-06-25T04:29:37.946Z,17.18
2023-06-25T04:30:37.917Z,17.18
2023-06-25T04:31:37.966Z,17.21
2023-06-25T04:32:37.944Z,17.22
2023-06-25T04:33:37.893Z,17.26
2023-06-25T04:34:37.878Z,17.30
2023-06-25T04:35:38.090Z,17.33
2023-06-25T04:36:37.846Z,17.36
2023-06-25T04:37:37.892Z,17.37
2023-06-25T04:38:37.835Z,17.38
2023-06-25T04:39:37.841Z,17.41
2023-06-25T04:40:37.853Z,17.44
2023-06-25T04:41:37.811Z,17.48
2023-06-25T04:42:37.808Z,17.51
2023-06-25T04:43:37.807Z,17.54
2023-06-25T04:44:37.801Z,17.55
2023-06-25T04:45:38.027Z,17.59
2023-06-25T04:46:37.748Z,17.64
2023-06-25T04:47:37.769Z,17.66
2023-06-25T04:48:37.707Z,17.71
2023-06-25T04:49:37.726Z,17.74
2023-06-25T04:50:37.716Z,17.77
2023-06-25T04:51:37.669Z,17.81
2023-06-25T04:52:37.666Z,17.84
2023-06-25T04:53:37.822Z,17.86
2023-06-25T04:54:37.636Z,17.87
2023-06-25T04:55:37.824Z,17.92
2023-06-25T04:56:37.675Z,17.95
2023-06-25T04:57:37.627Z,17.96
2023-06-25T04:58:39.341Z,18.00
2023-06-25T04:59:37.607Z,18.03
2023-06-25T05:00:37.678Z,18.07
2023-06-25T05:01:37.640Z,18.10
2023-06-25T05:02:37.622Z,18.14
2023-06-25T05:03:37.592Z,18.18
2023-06-25T05:04:37.581Z,18.18
2023-06-25T05:05:37.753Z,18.23
2023-06-25T05:06:37.527Z,18.26
2023-06-25T05:07:37.515Z,18.30
2023-06-25T05:08:37.533Z,18.32
2023-06-25T05:09:37.494Z,18.36
2023-06-25T05:10:37.494Z,18.39
2023-06-25T05:11:37.480Z,18.44
2023-06-25T05:12:37.462Z,18.47
2023-06-25T05:13:37.451Z,18.51
2023-06-25T05:14:37.442Z,18.54
2023-06-25T05:15:37.601Z,18.58
2023-06-25T05:16:37.396Z,18.62
2023-06-25T05:17:37.426Z,18.65
2023-06-25T05:18:37.436Z,18.69
2023-06-25T05:19:37.417Z,18.69
2023-06-25T05:20:37.415Z,18.73
2023-06-25T05:21:37.418Z,18.76
2023-06-25T05:22:37.350Z,18.78
2023-06-25T05:23:37.344Z,18.82
2023-06-25T05:24:37.422Z,18.85
2023-06-25T05:25:38.083Z,18.88
2023-06-25T05:26:37.308Z,18.91
2023-06-25T05:27:37.333Z,18.92
2023-06-25T05:28:37.312Z,18.92
2023-06-25T05:29:37.321Z,18.94
2023-06-25T05:30:37.255Z,18.99
2023-06-25T05:31:37.532Z,19.00
2023-06-25T05:32:37.265Z,19.02
2023-06-25T05:33:37.221Z,19.06
2023-06-25T05:34:37.194Z,19.11
2023-06-25T05:35:37.469Z,19.18
2023-06-25T05:36:37.248Z,19.22
2023-06-25T05:37:37.208Z,19.26
2023-06-25T05:38:37.195Z,19.32
2023-06-25T05:39:37.225Z,19.39
2023-06-25T05:40:37.181Z,19.41
2023-06-25T05:41:37.176Z,19.46
2023-06-25T05:42:37.143Z,19.48
2023-06-25T05:43:37.142Z,19.51
2023-06-25T05:44:37.116Z,19.56
2023-06-25T05:45:37.497Z,19.61
2023-06-25T05:46:37.104Z,19.66
2023-06-25T05:47:37.172Z,19.69
2023-06-25T05:48:37.772Z,19.76
2023-06-25T05:49:37.063Z,19.81
2023-06-25T05:50:37.043Z,19.83
2023-06-25T05:51:37.037Z,19.87
2023-06-25T05:52:37.042Z,19.95
2023-06-25T05:53:37.030Z,19.99
2023-06-25T05:54:37.027Z,20.02
2023-06-25T05:55:37.336Z,20.08
2023-06-25T05:56:37.177Z,20.13
2023-06-25T05:57:36.974Z,20.16
2023-06-25T05:58:37.010Z,20.21
2023-06-25T05:59:36.946Z,20.28
2023-06-25T06:00:36.926Z,20.29
2023-06-25T06:01:37.053Z,20.35
2023-06-25T06:02:36.945Z,20.39
2023-06-25T06:03:37.084Z,20.43
2023-06-25T06:04:36.894Z,20.50
2023-06-25T06:05:37.149Z,20.55
2023-06-25T06:06:36.922Z,20.59
2023-06-25T06:07:36.869Z,20.59
2023-06-25T06:08:36.881Z,20.66
2023-06-25T06:09:36.938Z,20.73
2023-06-25T06:10:36.876Z,20.72
2023-06-25T06:11:36.825Z,20.77
2023-06-25T06:12:36.807Z,20.82
2023-06-25T06:13:36.799Z,20.87
2023-06-25T06:14:36.828Z,20.89
2023-06-25T06:15:37.015Z,20.91
2023-06-25T06:16:36.790Z,20.97
2023-06-25T06:17:36.764Z,20.99
2023-06-25T06:18:36.723Z,21.04
2023-06-25T06:19:36.710Z,21.12
2023-06-25T06:20:36.708Z,21.16
2023-06-25T06:21:36.704Z,21.19
2023-06-25T06:22:36.739Z,21.21
2023-06-25T06:23:36.708Z,21.21
2023-06-25T06:24:36.688Z,21.24
2023-06-25T06:25:36.936Z,21.28
2023-06-25T06:26:36.798Z,21.34
2023-06-25T06:27:36.647Z,21.38
2023-06-25T06:28:36.649Z,21.44
2023-06-25T06:29:36.625Z,21.49
2023-06-25T06:30:36.666Z,21.53
2023-06-25T06:31:36.589Z,21.59
2023-06-25T06:32:36.641Z,21.62
2023-06-25T06:33:37.779Z,21.64
2023-06-25T06:34:36.571Z,21.68
2023-06-25T06:35:36.917Z,21.72
2023-06-25T06:36:36.566Z,21.79
2023-06-25T06:37:36.556Z,21.84
2023-06-25T06:38:36.580Z,21.86
2023-06-25T06:39:36.517Z,21.94
2023-06-25T06:40:36.504Z,21.98
2023-06-25T06:41:36.498Z,22.05
2023-06-25T06:42:36.476Z,22.09
2023-06-25T06:43:36.467Z,22.14
2023-06-25T06:44:36.507Z,22.20
2023-06-25T06:45:36.638Z,22.24
2023-06-25T06:46:36.448Z,22.27
2023-06-25T06:47:36.510Z,22.28
2023-06-25T06:48:36.449Z,22.33
2023-06-25T06:49:36.396Z,22.33
2023-06-25T06:50:36.471Z,22.33
2023-06-25T06:51:36.368Z,22.37
2023-06-25T06:52:36.416Z,22.42
2023-06-25T06:53:36.355Z,22.46
2023-06-25T06:54:36.381Z,22.54
2023-06-25T06:55:36.442Z,22.55
2023-06-25T06:56:36.360Z,22.61
2023-06-25T06:57:37.518Z,22.68
2023-06-25T06:58:36.300Z,22.73
2023-06-25T06:59:36.328Z,22.82
2023-06-25T07:00:36.289Z,22.85
2023-06-25T07:01:36.295Z,22.91
2023-06-25T07:02:36.313Z,22.92
2023-06-25T07:03:36.255Z,22.97
2023-06-25T07:04:36.230Z,23.00
2023-06-25T07:05:36.523Z,23.04
2023-06-25T07:06:36.233Z,23.12
2023-06-25T07:07:36.198Z,23.17
2023-06-25T07:08:36.190Z,23.22
2023-06-25T07:09:36.188Z,23.27
2023-06-25T07:10:36.284Z,23.31
2023-06-25T07:11:36.131Z,23.38
2023-06-25T07:12:36.162Z,23.46
2023-06-25T07:13:36.124Z,23.51
2023-06-25T07:14:36.121Z,23.58
2023-06-25T07:15:36.334Z,23.68
2023-06-25T07:16:36.104Z,23.75
2023-06-25T07:17:36.096Z,23.79
2023-06-25T07:18:36.122Z,23.84
2023-06-25T07:19:36.095Z,23.93
2023-06-25T07:20:36.158Z,23.98
2023-06-25T07:21:36.027Z,23.98
2023-06-25T07:22:36.042Z,23.98
2023-06-25T07:23:36.074Z,23.97
2023-06-25T07:24:36.063Z,23.94
2023-06-25T07:25:36.126Z,23.97
2023-06-25T07:26:36.008Z,24.03
2023-06-25T07:27:35.977Z,24.09
2023-06-25T07:28:36.033Z,24.15
2023-06-25T07:29:35.958Z,24.22
2023-06-25T07:30:35.973Z,24.30
2023-06-25T07:31:35.983Z,24.39
2023-06-25T07:32:35.947Z,24.45
2023-06-25T07:33:35.902Z,24.55
2023-06-25T07:34:35.933Z,24.61
2023-06-25T07:35:36.237Z,24.65
2023-06-25T07:36:35.888Z,24.71
2023-06-25T07:37:38.440Z,24.78
2023-06-25T07:38:35.865Z,24.80
2023-06-25T07:39:35.839Z,24.87
2023-06-25T07:40:35.845Z,24.95
2023-06-25T07:41:35.842Z,25.00
2023-06-25T07:42:35.841Z,25.08
2023-06-25T07:43:35.835Z,25.13
2023-06-25T07:44:50.443Z,25.17
2023-06-25T07:45:37.108Z,25.20
2023-06-25T07:46:35.835Z,25.25
2023-06-25T07:47:35.840Z,25.32
2023-06-25T07:48:35.783Z,25.39
2023-06-25T07:49:35.750Z,25.46
2023-06-25T07:50:35.726Z,25.51
2023-06-25T07:51:35.711Z,25.57
2023-06-25T07:52:35.719Z,25.65
2023-06-25T07:53:35.704Z,25.72
2023-06-25T07:54:35.728Z,25.75
2023-06-25T07:55:40.198Z,25.77
2023-06-25T07:56:36.674Z,25.83
2023-06-25T07:57:35.636Z,25.87
2023-06-25T07:58:35.642Z,25.87
2023-06-25T07:59:51.262Z,25.83
2023-06-25T08:00:36.679Z,25.85
2023-06-25T08:01:35.616Z,25.88
2023-06-25T08:02:35.660Z,25.90
2023-06-25T08:03:35.718Z,25.87
2023-06-25T08:04:35.643Z,25.87
2023-06-25T08:05:35.866Z,25.90
2023-06-25T08:06:35.563Z,25.92
2023-06-25T08:07:35.585Z,25.95
2023-06-25T08:08:35.618Z,26.01
2023-06-25T08:09:35.527Z,26.09
2023-06-25T08:10:35.531Z,26.17
2023-06-25T08:11:35.582Z,26.25
2023-06-25T08:12:35.517Z,26.25
2023-06-25T08:13:35.487Z,26.29
2023-06-25T08:14:35.490Z,26.33
2023-06-25T08:16:32.391Z,26.45
2023-06-25T08:17:32.419Z,26.45
2023-06-25T08:18:32.357Z,26.50
2023-06-25T08:19:32.361Z,26.55
2023-06-25T08:20:32.338Z,26.62
2023-06-25T08:21:32.347Z,26.66
2023-06-25T08:22:32.309Z,26.66
2023-06-25T08:23:32.320Z,26.69
2023-06-25T08:24:32.290Z,26.69
2023-06-25T08:25:32.281Z,26.72
2023-06-25T08:26:32.265Z,26.76
2023-06-25T08:27:32.277Z,26.76
2023-06-25T08:28:32.260Z,26.82
2023-06-25T08:29:32.257Z,26.87
2023-06-25T08:30:32.318Z,26.92
2023-06-25T08:31:32.248Z,26.92
2023-06-25T08:32:32.261Z,26.97
2023-06-25T08:33:32.200Z,27.03
2023-06-25T08:34:32.185Z,27.07
2023-06-25T08:35:32.189Z,27.12
2023-06-25T08:36:32.170Z,27.13
2023-06-25T08:37:32.159Z,27.13
2023-06-25T08:38:32.135Z,27.12
2023-06-25T08:39:32.157Z,27.12
2023-06-25T08:40:32.137Z,27.19
2023-06-25T08:41:33.094Z,27.27
2023-06-25T08:42:32.090Z,27.32
2023-06-25T08:43:32.100Z,27.41
2023-06-25T08:44:32.061Z,27.44
2023-06-25T08:45:32.093Z,27.46
2023-06-25T08:46:32.148Z,27.47
2023-06-25T08:47:32.124Z,27.43
2023-06-25T08:48:32.060Z,27.46
2023-06-25T08:49:32.106Z,27.43
2023-06-25T08:50:32.003Z,27.43
2023-06-25T08:51:32.070Z,27.47
2023-06-25T08:52:32.067Z,27.51
2023-06-25T08:53:32.046Z,27.63
2023-06-25T08:54:31.952Z,27.67
2023-06-25T08:55:31.959Z,27.69
2023-06-25T08:56:31.958Z,27.72
2023-06-25T08:57:31.934Z,27.69
2023-06-25T08:58:31.914Z,27.72
2023-06-25T08:59:31.925Z,27.70
2023-06-25T09:00:31.923Z,27.72
2023-06-25T09:01:31.903Z,27.72
2023-06-25T09:02:31.938Z,27.77
2023-06-25T09:03:31.952Z,27.81
2023-06-25T09:04:31.849Z,27.75
2023-06-25T09:05:31.858Z,27.70
2023-06-25T09:06:31.827Z,27.70
2023-06-25T09:07:31.871Z,27.72
2023-06-25T09:08:31.804Z,27.77
2023-06-25T09:09:31.822Z,27.81
2023-06-25T09:10:31.793Z,27.84
2023-06-25T09:11:31.793Z,27.90
2023-06-25T09:12:31.775Z,27.96
2023-06-25T09:13:31.776Z,28.00
2023-06-25T09:14:31.750Z,28.06
2023-06-25T09:15:31.749Z,28.09
2023-06-25T09:16:31.735Z,28.15
2023-06-25T09:17:31.747Z,28.18
2023-06-25T09:18:31.792Z,28.24
2023-06-25T09:19:31.735Z,28.24
2023-06-25T09:20:31.688Z,28.27
2023-06-25T09:21:31.696Z,28.31
2023-06-25T09:22:31.668Z,28.33
2023-06-25T09:23:31.686Z,28.36
2023-06-25T09:24:31.654Z,28.40
2023-06-25T09:25:31.834Z,28.41
2023-06-25T09:26:31.640Z,28.44
2023-06-25T09:27:31.630Z,28.44
2023-06-25T09:28:31.613Z,28.46
2023-06-25T09:29:31.606Z,28.54
2023-06-25T09:30:31.597Z,28.55
2023-06-25T09:31:31.618Z,28.59
2023-06-25T09:32:31.608Z,28.66
2023-06-25T09:33:31.554Z,28.73
2023-06-25T09:34:31.546Z,28.74
2023-06-25T09:35:31.544Z,28.80
2023-06-25T09:36:39.203Z,28.88
2023-06-25T09:37:32.529Z,28.90
2023-06-25T09:38:31.496Z,28.90
2023-06-25T09:39:31.505Z,28.90
2023-06-25T09:40:31.492Z,28.85
2023-06-25T09:41:31.472Z,28.77
2023-06-25T09:42:31.445Z,28.71
2023-06-25T09:43:31.471Z,28.61
2023-06-25T09:44:31.437Z,28.56
2023-06-25T09:45:31.448Z,28.61
2023-06-25T09:46:31.446Z,28.64
2023-06-25T09:47:31.464Z,28.74
2023-06-25T09:48:31.408Z,28.81
2023-06-25T09:49:31.385Z,28.86
2023-06-25T09:50:31.367Z,28.92
2023-06-25T09:51:31.386Z,28.96
2023-06-25T09:52:31.348Z,29.02
2023-06-25T09:53:31.367Z,29.00
2023-06-25T09:54:31.331Z,28.98
2023-06-25T09:55:31.338Z,28.80
2023-06-25T09:56:31.307Z,28.71
2023-06-25T09:57:31.302Z,28.71
2023-06-25T09:58:31.296Z,28.67
2023-06-25T09:59:31.293Z,28.59
2023-06-25T10:00:31.274Z,28.59
2023-06-25T10:01:31.338Z,28.64
2023-06-25T10:02:31.610Z,28.67
2023-06-25T10:03:31.376Z,28.68
2023-06-25T10:04:31.232Z,28.76
2023-06-25T10:05:31.220Z,28.78
2023-06-25T10:06:31.215Z,28.86
2023-06-25T10:07:31.339Z,28.95
2023-06-25T10:08:31.184Z,29.14
2023-06-25T10:09:31.186Z,29.24
2023-06-25T10:10:31.191Z,29.37
2023-06-25T10:11:31.369Z,29.49
2023-06-25T10:12:31.150Z,29.63
2023-06-25T10:13:31.144Z,29.71
2023-06-25T10:14:31.122Z,29.82
2023-06-25T10:15:31.181Z,29.82
2023-06-25T10:16:38.956Z,29.85
2023-06-25T10:17:32.164Z,29.78
2023-06-25T10:18:31.124Z,29.78
2023-06-25T10:19:31.068Z,29.70
2023-06-25T10:20:31.079Z,29.48
2023-06-25T10:21:31.054Z,29.42
2023-06-25T10:22:31.053Z,29.39
2023-06-25T10:23:31.045Z,29.43
2023-06-25T10:24:31.008Z,29.53
2023-06-25T10:25:31.026Z,29.65
2023-06-25T10:26:31.011Z,29.57
2023-06-25T10:27:31.971Z,29.45
2023-06-25T10:28:32.443Z,29.34
2023-06-25T10:29:30.972Z,29.26
2023-06-25T10:30:30.960Z,29.24
2023-06-25T10:31:31.112Z,29.28
2023-06-25T10:32:31.241Z,29.41
2023-06-25T10:33:30.963Z,29.43
2023-06-25T10:34:31.418Z,29.39
2023-06-25T10:35:30.913Z,29.34
2023-06-25T10:36:30.882Z,29.37
2023-06-25T10:37:31.856Z,29.51
2023-06-25T10:38:30.868Z,29.68
2023-06-25T10:39:30.875Z,29.74
2023-06-25T10:40:31.625Z,29.79
2023-06-25T10:41:30.862Z,29.73
2023-06-25T10:42:30.822Z,29.64
2023-06-25T10:43:30.847Z,29.63
2023-06-25T10:44:30.804Z,29.71
2023-06-25T10:45:31.777Z,29.76
2023-06-25T10:46:32.530Z,29.71
2023-06-25T10:47:30.800Z,29.76
2023-06-25T10:48:30.780Z,29.79
2023-06-25T10:49:30.776Z,29.86
2023-06-25T10:50:30.742Z,30.00
2023-06-25T10:51:30.755Z,30.11
2023-06-25T10:52:30.727Z,30.10
2023-06-25T10:53:30.732Z,30.10
2023-06-25T10:54:30.712Z,30.07
2023-06-25T10:55:30.690Z,30.19
2023-06-25T10:56:30.682Z,30.29
2023-06-25T10:57:30.705Z,30.17
2023-06-25T10:58:30.666Z,30.02
2023-06-25T10:59:30.658Z,30.10
2023-06-25T11:00:30.660Z,30.23
2023-06-25T11:01:30.733Z,30.32
2023-06-25T11:02:30.710Z,30.35
2023-06-25T11:03:30.666Z,30.47
2023-06-25T11:04:30.657Z,30.58
2023-06-25T11:05:30.594Z,30.65
2023-06-25T11:06:30.571Z,30.73
2023-06-25T11:07:30.597Z,30.76
2023-06-25T11:08:31.440Z,30.64
2023-06-25T11:09:30.564Z,30.61
2023-06-25T11:10:30.552Z,30.58
2023-06-25T11:11:30.542Z,30.54
2023-06-25T11:12:30.537Z,30.51
2023-06-25T11:13:30.499Z,30.39
2023-06-25T11:14:30.507Z,30.42
2023-06-25T11:15:30.492Z,30.51
2023-06-25T11:16:30.485Z,30.58
2023-06-25T11:17:30.506Z,30.61
2023-06-25T11:18:30.457Z,30.49
2023-06-25T11:19:30.482Z,30.35
2023-06-25T11:20:31.179Z,30.23
2023-06-25T11:21:30.420Z,30.17
2023-06-25T11:22:30.415Z,30.11
2023-06-25T11:23:30.420Z,30.10
2023-06-25T11:24:30.395Z,30.20
2023-06-25T11:25:30.414Z,30.23
2023-06-25T11:26:30.690Z,30.17
2023-06-25T11:27:31.399Z,29.95
2023-06-25T11:28:30.356Z,30.01
2023-06-25T11:29:30.351Z,30.07
2023-06-25T11:30:30.555Z,30.10
2023-06-25T11:31:30.348Z,29.97
2023-06-25T11:32:32.656Z,29.78
2023-06-25T11:33:30.284Z,29.76
2023-06-25T11:34:30.287Z,29.71
2023-06-25T11:35:30.296Z,29.82
2023-06-25T11:36:30.301Z,29.97
2023-06-25T11:37:30.289Z,30.08
2023-06-25T11:38:30.273Z,30.15
2023-06-25T11:39:30.236Z,30.13
2023-06-25T11:40:30.270Z,30.15
2023-06-25T11:41:30.213Z,30.15
2023-06-25T11:42:30.243Z,30.23
2023-06-25T11:43:30.203Z,30.31
2023-06-25T11:44:30.210Z,30.42
2023-06-25T11:45:30.190Z,30.39
2023-06-25T11:46:30.179Z,30.11
2023-06-25T11:47:30.180Z,30.17
2023-06-25T11:48:31.184Z,30.31
2023-06-25T11:49:30.122Z,30.39
2023-06-25T11:50:30.144Z,30.46
2023-06-25T11:51:30.130Z,30.46
2023-06-25T11:52:30.148Z,30.42
2023-06-25T11:53:30.098Z,30.39
2023-06-25T11:54:30.086Z,30.38
2023-06-25T11:55:30.090Z,30.15
2023-06-25T11:56:30.097Z,30.07
2023-06-25T11:57:30.058Z,30.11
2023-06-25T11:58:30.256Z,30.24
2023-06-25T11:59:30.064Z,30.39
2023-06-25T12:00:30.048Z,30.53
2023-06-25T12:01:30.108Z,30.75
2023-06-25T12:02:44.532Z,30.97
2023-06-25T12:03:31.248Z,31.09
2023-06-25T12:04:30.110Z,30.86
2023-06-25T12:05:30.021Z,30.80
2023-06-25T12:06:30.106Z,30.77
2023-06-25T12:07:29.970Z,30.91
2023-06-25T12:08:29.968Z,31.16
2023-06-25T12:09:29.949Z,31.38
2023-06-25T12:10:29.942Z,31.54
2023-06-25T12:11:29.908Z,31.66
2023-06-25T12:12:30.285Z,31.69
2023-06-25T12:13:29.896Z,31.63
2023-06-25T12:14:29.893Z,31.50
2023-06-25T12:15:29.870Z,31.21
2023-06-25T12:16:30.351Z,30.94
2023-06-25T12:17:29.881Z,30.94
2023-06-25T12:18:29.850Z,30.95
2023-06-25T12:19:29.834Z,31.29
2023-06-25T12:20:29.826Z,31.50
2023-06-25T12:21:29.812Z,31.68
2023-06-25T12:22:32.272Z,31.95
2023-06-25T12:23:29.797Z,32.00
2023-06-25T12:24:29.790Z,32.07
2023-06-25T12:25:29.759Z,31.99
2023-06-25T12:26:29.780Z,31.93
2023-06-25T12:27:29.760Z,31.93
2023-06-25T12:28:29.757Z,31.96
2023-06-25T12:29:30.696Z,31.95
2023-06-25T12:30:29.723Z,31.92
2023-06-25T12:31:29.751Z,31.76
2023-06-25T12:32:29.799Z,31.66
2023-06-25T12:33:29.695Z,31.84
2023-06-25T12:34:29.710Z,31.85
2023-06-25T12:35:29.691Z,31.92
2023-06-25T12:36:29.677Z,32.06
2023-06-25T12:37:29.728Z,31.99
2023-06-25T12:38:29.655Z,32.08
2023-06-25T12:39:29.658Z,32.14
2023-06-25T12:40:29.626Z,32.14
2023-06-25T12:41:29.606Z,32.30
2023-06-25T12:42:29.612Z,32.55
2023-06-25T12:43:29.598Z,32.75
2023-06-25T12:44:29.594Z,32.97
2023-06-25T12:45:29.570Z,33.28
2023-06-25T12:46:29.557Z,33.61
2023-06-25T12:47:29.570Z,33.78
2023-06-25T12:48:29.560Z,33.76
2023-06-25T12:49:29.554Z,33.53
2023-06-25T12:50:29.556Z,32.67
2023-06-25T12:51:29.519Z,32.63
2023-06-25T12:52:29.524Z,32.96
2023-06-25T12:53:29.491Z,33.23
2023-06-25T12:54:29.490Z,33.45
2023-06-25T12:55:29.485Z,33.63